佐賀空港の過去48時間の天気

佐賀空港 (Saga)

現在時刻: 1/19 20:35 JST (1/19 11:35 UTC) 以下の時間は現地時間です。

過去48時間のMETAR気象情報
時間 風向 風速(m/s) 視程 気温(℃) 湿度(%) 気圧(hPa) 天気現象
19 20:00 北北東 2 10km以上 9 71 1020
19 19:00 北北東 2 10km以上 9 76 1020
19 18:00 北北西 2 10km以上 9 71 1020
19 17:00 北北西 1 10km以上 10 71 1020
19 16:00 不定 1 10km以上 11 62 1021
19 15:00 不定 2 10km以上 10 71 1022
19 14:00 南東 4 10km以上 10 66 1022
19 13:40 南東 5 10km以上 9 76 1022
19 13:00 南西 3 10km以上 8 81 1024
19 12:00 2 10km以上 8 76 1025
19 11:00 不定 1 10km以上 7 81 1026
19 10:00 東北東 2 10km以上 5 81 1027
19 09:00 北東 2 10km以上 2 93 1027
19 08:00 1 10km以上 -1 93 1027 地霧
19 07:00 2 6000m 1 93 1026
19 06:00 2 9000m 0 100 1025
19 04:00 2 8000m -2 100 1025
19 03:00 北北西 1 10km以上 1 100 1025
19 02:00 北西 1 10km以上 1 93 1026
19 01:00 北北西 3 10km以上 0 100 1026
19 00:00 2 10km以上 2 93 1025
18 23:00 2 10km以上 3 93 1026
18 21:00 北北西 1 10km以上 5 87 1026
18 20:00 北西 3 10km以上 7 81 1026
18 19:00 南南西 5 10km以上 10 66 1026
18 18:00 5 10km以上 9 71 1025
18 17:00 南南東 4 10km以上 10 62 1025
18 16:00 4 10km以上 10 62 1025
18 15:00 4 10km以上 10 62 1024
18 14:00 南南東 4 10km以上 10 62 1024
18 13:00 南南東 4 10km以上 10 62 1025
18 12:00 南南西 3 10km以上 9 66 1027
18 11:00 2 10km以上 7 70 1028
18 10:00 不定 1 10km以上 6 70 1028
18 09:00 北北東 2 10km以上 3 87 1027
18 08:00 2 10km以上 0 93 1026
18 07:00 3 10km以上 0 93 1026
18 06:00 東北東 1 10km以上 -1 93 1025
18 04:00 2 10km以上 2 87 1024
18 03:00 北北西 2 10km以上 2 87 1025
18 02:00 不定 1 10km以上 3 81 1024
18 01:00 不定 1 10km以上 3 81 1024
18 00:00 西北西 2 10km以上 6 70 1024
17 23:00 西 3 10km以上 7 70 1023
17 21:00 西 4 10km以上 7 61 1022
RJFS 191100Z 02004KT 9999 FEW035 SCT045 BKN060 09/04 Q1020
RJFS 191000Z 02003KT 9999 FEW035 SCT060 BKN070 09/05 Q1020
RJFS 190900Z 34003KT 9999 FEW035 BKN070 09/04 Q1020
RJFS 190800Z 34002KT 9999 FEW035 BKN070 10/05 Q1020
RJFS 190700Z VRB01KT 9999 FEW035 SCT060 BKN070 11/04 Q1021
RJFS 190600Z VRB04KT 9999 FEW035 SCT060 BKN070 10/05 Q1022
RJFS 190500Z 13008KT 110V190 9999 FEW035 SCT050 BKN060 10/04 Q1022
RJFS 190440Z 13010KT 9999 FEW035 BKN050 09/05 Q1022 RMK 1CU035 7SC050 A3020 P/FR
RJFS 190400Z 22005KT 190V280 9999 FEW035 BKN050 08/05 Q1024
RJFS 190300Z 17004KT 120V220 9999 FEW040 08/04 Q1025
RJFS 190200Z VRB02KT 9999 FEW035 07/04 Q1026
RJFS 190100Z 06003KT 020V090 9999 FEW035 05/02 Q1027
RJFS 190000Z 05004KT 360V070 9999 FEW035 02/01 Q1027
RJFS 182300Z 01001KT 9999 R29/0500VP2000U MIFG FEW040 M01/M02 Q1027
RJFS 182200Z 01003KT 6000 FEW040 01/00 Q1026
RJFS 182100Z 36003KT 9000 NSC 00/M00 Q1025
RJFS 181900Z 36003KT 8000 NSC M02/M02 Q1025
RJFS 181800Z 34002KT CAVOK 01/01 Q1025
RJFS 181700Z 32001KT CAVOK 01/M00 Q1026
RJFS 181600Z 34005KT CAVOK 00/M00 Q1026
RJFS 181500Z 08003KT CAVOK 02/01 Q1025
RJFS 181400Z 35003KT CAVOK 03/02 Q1026
RJFS 181200Z 34002KT 9999 FEW040 BKN/// 05/03 Q1026
RJFS 181100Z 31005KT 9999 FEW040 BKN/// 07/04 Q1026
RJFS 181000Z 21009KT 9999 FEW040 SCT/// 10/04 Q1026
RJFS 180900Z 17009KT 9999 FEW040 09/04 Q1025
RJFS 180800Z 16007KT 9999 FEW040 SCT/// 10/03 Q1025
RJFS 180700Z 17007KT 9999 FEW040 10/03 Q1025
RJFS 180600Z 17008KT 9999 FEW040 10/03 Q1024
RJFS 180500Z 16007KT 120V180 9999 FEW040 10/03 Q1024
RJFS 180400Z 16007KT 120V190 9999 FEW040 10/03 Q1025
RJFS 180300Z 20006KT 160V220 9999 FEW040 09/03 Q1027
RJFS 180200Z 19003KT 140V230 9999 FEW040 07/02 Q1028
RJFS 180100Z VRB01KT 9999 FEW040 06/01 Q1028
RJFS 180000Z 02004KT 9999 FEW040 03/01 Q1027
RJFS 172300Z 01004KT 9999 FEW030 M00/M01 Q1026
RJFS 172200Z 36005KT CAVOK M00/M01 Q1026
RJFS 172100Z 07002KT CAVOK M01/M02 Q1025
RJFS 171900Z 36003KT 9999 FEW040 02/M00 Q1024
RJFS 171800Z 34003KT 9999 FEW045 02/M00 Q1025
RJFS 171700Z VRB02KT 9999 FEW045 03/00 Q1024
RJFS 171600Z VRB01KT 9999 FEW045 03/M00 Q1024
RJFS 171500Z 30003KT 9999 FEW050 06/01 Q1024
RJFS 171400Z 27005KT 9999 FEW040 BKN050 07/02 Q1023
RJFS 171200Z 26007KT 9999 FEW035 BKN060 07/00 Q1022